Bootsie B, — WDF9484 — position and weather

sailwx.info

Track history (hours):
 
Tides and Currents Weather Stations Pressure Air Temp Water Temp Dewpoint Dewpoint Depression Visibility Wind Speed Wind Dir Waves Ship Positions

Bootsie B,

Owner: Marquette Transp[ortation Co. LLC, Paducah, KY. More information available from US FCC via Universal Licensing System and Coast Guard Vessel Documentation Center.

Last reported at 2016-May-26 06:33 UTC. Time now 2016-May-26 06:50 UTC.
Position N 29°54' W 090°05'.

Length 57 m; draft 2 m.

Type: Towing. MMSI: 367505630.

Date/timePositionNaut miles runAvg speedWind from/ knotsBaromVisibWave heightAir tempDewpointWater temp
2016-May-26 06:33N 29°54' W 090°05'0 0.0
2016-May-26 05:33N 29°54' W 090°05'0 0.0
2016-May-26 04:33N 29°54' W 090°05'0 0.0
2016-May-26 03:33N 29°54' W 090°05'5 4.9
2016-May-26 02:33N 29°49' W 090°04'7 6.6
2016-May-26 01:33N 29°54' W 089°59'4 4.4
2016-May-26 00:33N 29°58' W 090°03'7 6.7
2016-May-25 23:33N 29°57' W 090°10'4 0.8
2016-May-25 18:21N 29°58' W 090°15'0 0.2
2016-May-25 17:30N 29°58' W 090°15'  
2016-May-23 12:33N 31°47' W 091°22'9 9.2
2016-May-23 11:32N 31°53' W 091°13'9 9.5
2016-May-23 10:33N 31°60' W 091°06'8 8.3
2016-May-23 09:34N 32°08' W 091°06'8 8.1
2016-May-23 08:33N 32°14' W 090°59'7 7.2
2016-May-23 07:34N 32°21' W 090°57'8 7.8
2016-May-23 06:33N 32°26' W 091°04'10 9.5
2016-May-23 05:33N 32°35' W 091°08'  
Track history (hours):
 
Tides and Currents Weather Stations Pressure Air Temp Water Temp Dewpoint Dewpoint Depression Visibility Wind Speed Wind Dir Waves Ship Positions

Bootsie B,

Owner: Marquette Transp[ortation Co. LLC, Paducah, KY. More information available from US FCC via Universal Licensing System and Coast Guard Vessel Documentation Center.

Last reported at 2016-May-26 06:33 UTC. Time now 2016-May-26 06:50 UTC.
Position N 29°54' W 090°05'.

Length 57 m; draft 2 m.

Type: Towing. MMSI: 367505630.

Date/timePositionNaut miles runAvg speedWind from/ knotsBaromVisibWave heightAir tempDewpointWater temp
2016-May-26 06:33N 29°54' W 090°05'0 0.0
2016-May-26 05:33N 29°54' W 090°05'0 0.0
2016-May-26 04:33N 29°54' W 090°05'0 0.0
2016-May-26 03:33N 29°54' W 090°05'5 4.9
2016-May-26 02:33N 29°49' W 090°04'7 6.6
2016-May-26 01:33N 29°54' W 089°59'4 4.4
2016-May-26 00:33N 29°58' W 090°03'7 6.7
2016-May-25 23:33N 29°57' W 090°10'4 0.8
2016-May-25 18:21N 29°58' W 090°15'0 0.2
2016-May-25 17:30N 29°58' W 090°15'  
2016-May-23 12:33N 31°47' W 091°22'9 9.2
2016-May-23 11:32N 31°53' W 091°13'9 9.5
2016-May-23 10:33N 31°60' W 091°06'8 8.3
2016-May-23 09:34N 32°08' W 091°06'8 8.1
2016-May-23 08:33N 32°14' W 090°59'7 7.2
2016-May-23 07:34N 32°21' W 090°57'8 7.8
2016-May-23 06:33N 32°26' W 091°04'10 9.5
2016-May-23 05:33N 32°35' W 091°08'  

Dump ship's entire track history